Delcambre, Louisiana
Current Conditions -  °F | °C
As of 12:50 AM on Saturday 01 Nov 2014 (Local Time) from KIYA Reporting Station
Clear Clear  
Wind Chill: 55°   Ceiling: Unl
Heat Index: 55°   Visibility: 10mi
Dew Point: 44°   Wind: 12mph
Humidity: 67%   Direction: 10°N
Pressure: 30.24"   Gusts: NA
Location:  29.95°N, 91.99°W
Report Text: KIYA 010550Z AUTO 01010KT 10SM CLR 13/07 A3024 RMK AO2 T01280067
Loading
Personal Weather Stations






























Interactive Weather Map
Tropical Storm Tracking
New forecast layout! Learn more

10-Day Weather Forecast

Advertisements
Track Severe Weather on mobile